Portada
METAR-TAF:

METAR-TAF

Aeropuertos :

Aeropuerto de Tánger-Ibn Battuta

Tánger, Marruecos

latitud: 35-44N, longitud: 005-54W, altitud: 19 m

Observación

El informe se hizo hace 39 minutos, a las 08:30 UTC
Viento 4 kt del oeste, variando entre suroeste y noroeste
Temperatura 19°C
Humedad 60%
Presión 1020 hPa
Visibilidad 10 km o más
sin nubes por debajo de 1500 m y sin presencia de cumulonimbus.

METAR: GMTT 130830Z 28004KT 220V320 CAVOK 19/11 Q1020 NOSIG

Hora: 09:09 (09:09 UTC)

Pronóstico

El informe se hizo hace 4 horas y 9 minutos, a las 05:00 UTC
Pronóstico válido del 13 a las 06 UTC al 14 a las 12 UTC
Viento 9 kt del oeste-suroeste
Visibilidad 10 km o más
sin nubes por debajo de 1500 m y sin presencia de cumulonimbus.
Probabilidad 30% :
Temporalmente
del 13 a las 06 UTC al 13 a las 10 UTC
Visibilidad: 3000 m
neblina

TAF: GMTT 130500Z 1306/1412 24009KT CAVOK PROB30 TEMPO 1306/1310 3000 BR

Observaciones y pronósticos meteorológicos de más de 4000 aeropuertos (mensajes METAR y TAF).

Los puntos amarillos y rojos representan las estaciones disponibles.

Ponga el ratón en el punto deseado para ver el nombre de la estación.

Haga clic para ver las observaciones y los pronósticos meteorológicos.

Para cambiar el mapa : haga clic en los botones verdes con una cruz de color negro para hacer un zoom, en el botón verde con un guión para alejar o en las flechas verdes para mapas adyacentes.


METAR-TAF: